Grand Forks Air Force Base, ND

3:55 PM CST on February 13, 2016 (GMT -0600)
Grand Forks Air Force Base | | Change Station
CLOSE
Current Station
Airport
Location: Grand Forks AFB,
Elevation: 912 ft
Nearby Weather Stations

Elev 912 ft 47.96 °N, 97.40 °W | Updated 57 minutes ago

Overcast
Overcast
9 °F
Feels Like -10 °F
N
18
Wind Variable Wind from South

Today
High -- | Low -- °F
--% Chance of Precip.
Yesterday
High -- | Low -- °F
Precip. -- in
Pressure 30.37 in
Visibility 10.0 miles
Clouds Overcast 6000 ft
Windchill -10 °F
Dew Point -3 °F
Humidity 61%
Rainfall 0.00 in
Snow Depth Not available.
7:39 AM 5:48 PM
Waxing Crescent, 34% visible
METAR KRDR 132058Z 17016KT 10SM OVC060 M13/M19 A3027 RMK AO2A SLP283 60000 T11301192 57046
Pressure 30.37 in
Visibility 10.0 miles
Clouds Overcast 6000 ft
Windchill -10 °F
Dew Point -3 °F
Humidity 61%
Rainfall 0.00 in
Snow Depth Not available.
7:39 AM 5:48 PM
Waxing Crescent, 34% visible
METAR KRDR 132058Z 17016KT 10SM OVC060 M13/M19 A3027 RMK AO2A SLP283 60000 T11301192 57046

10-Day Weather Forecast

Almanac

Astronomy

Feb. 13, 2016 Rise Set
Actual Time
Civil Twilight
Nautical Twilight
Astronomical Twilight
Moon
Length of Visible Light
Length of Day
Tomorrow will be .
, % of the Moon is Illuminated

Today's Extremes

State Highs State Lows

Community

WunderPhotos

Upload Photos

1,892,682 photos uploaded!

WunderBlog® & News

Nearby

Air Quality

  Air Quality AQ Index Pollutant
Not available.

Snow Depth

Station Depth Elevation

Earthquake Activity

City Distance Mag. Time & Date
Minimum magnitude displayed is 2.5.

Coastal Water Temperatures

Place Temperature

Stations

Nearby Weather Stations

Station Location Temp. Windchill Dew Point Humidity Wind Precip. Elev Updated Type
                   

Watches & Warnings

There are currently no watches in effect.